createdAt,value
2018-08-03T00:00:40.215Z,23.24
2018-08-03T00:03:08.320Z,23.21
2018-08-03T00:05:36.418Z,23.18
2018-08-03T00:08:04.475Z,23.14
2018-08-03T00:10:32.541Z,23.11
2018-08-03T00:13:00.614Z,23.07
2018-08-03T00:15:28.703Z,23.03
2018-08-03T00:17:56.764Z,22.98
2018-08-03T00:20:24.839Z,22.96
2018-08-03T00:22:52.896Z,22.95
2018-08-03T00:25:20.965Z,22.90
2018-08-03T00:27:49.039Z,22.90
2018-08-03T00:30:17.107Z,22.86
2018-08-03T00:32:45.176Z,22.82
2018-08-03T00:35:13.287Z,22.77
2018-08-03T00:37:41.347Z,22.73
2018-08-03T00:40:09.444Z,22.68
2018-08-03T00:42:37.509Z,22.66
2018-08-03T00:45:05.877Z,22.62
2018-08-03T00:47:34.031Z,22.59
2018-08-03T00:50:02.116Z,22.54
2018-08-03T00:52:30.179Z,22.53
2018-08-03T00:54:58.343Z,22.47
2018-08-03T00:57:26.446Z,22.45
2018-08-03T00:59:54.535Z,22.41
2018-08-03T01:02:22.619Z,22.38
2018-08-03T01:04:50.708Z,22.34
2018-08-03T01:07:18.780Z,22.30
2018-08-03T01:09:46.892Z,22.25
2018-08-03T01:12:14.972Z,22.22
2018-08-03T01:14:43.083Z,22.23
2018-08-03T01:17:11.180Z,22.21
2018-08-03T01:19:39.268Z,22.20
2018-08-03T01:22:07.343Z,22.19
2018-08-03T01:24:35.448Z,22.19
2018-08-03T01:27:03.516Z,22.18
2018-08-03T01:29:31.641Z,22.17
2018-08-03T01:31:59.724Z,22.13
2018-08-03T01:34:27.815Z,22.11
2018-08-03T01:36:55.913Z,22.10
2018-08-03T01:39:24.016Z,22.10
2018-08-03T01:41:52.121Z,22.05
2018-08-03T01:44:20.225Z,22.02
2018-08-03T01:46:48.312Z,22.00
2018-08-03T01:49:16.384Z,21.99
2018-08-03T01:51:44.480Z,21.97
2018-08-03T01:54:12.571Z,21.95
2018-08-03T01:56:40.691Z,21.92
2018-08-03T01:59:08.817Z,21.87
2018-08-03T02:01:36.868Z,21.83
2018-08-03T02:04:04.944Z,21.80
2018-08-03T02:06:33.041Z,21.78
2018-08-03T02:09:01.115Z,21.74
2018-08-03T02:11:29.216Z,21.71
2018-08-03T02:13:57.312Z,21.67
2018-08-03T02:16:25.431Z,21.62
2018-08-03T02:18:53.500Z,21.57
2018-08-03T02:21:21.589Z,21.54
2018-08-03T02:23:49.664Z,21.51
2018-08-03T02:26:17.771Z,21.47
2018-08-03T02:28:45.835Z,21.44
2018-08-03T02:31:13.904Z,21.41
2018-08-03T02:33:42.004Z,21.39
2018-08-03T02:36:10.105Z,21.38
2018-08-03T02:38:38.164Z,21.36
2018-08-03T02:41:06.348Z,21.32
2018-08-03T02:43:34.433Z,21.30
2018-08-03T02:46:03.596Z,21.29
2018-08-03T02:48:31.648Z,21.26
2018-08-03T02:50:59.720Z,21.25
2018-08-03T02:53:27.793Z,21.23
2018-08-03T02:55:55.871Z,21.20
2018-08-03T02:58:23.937Z,21.17
2018-08-03T03:00:52.012Z,21.14
2018-08-03T03:03:20.075Z,21.12
2018-08-03T03:05:48.126Z,21.10
2018-08-03T03:08:16.196Z,21.08
2018-08-03T03:10:44.276Z,21.06
2018-08-03T03:13:12.366Z,21.04
2018-08-03T03:15:40.462Z,21.03
2018-08-03T03:18:08.560Z,21.03
2018-08-03T03:20:36.622Z,21.03
2018-08-03T03:23:04.696Z,21.01
2018-08-03T03:25:32.787Z,21.00
2018-08-03T03:28:01.024Z,20.95
2018-08-03T03:30:29.090Z,20.94
2018-08-03T03:32:57.164Z,20.93
2018-08-03T03:35:25.259Z,20.93
2018-08-03T03:37:53.356Z,20.91
2018-08-03T03:40:21.415Z,20.87
2018-08-03T03:42:49.496Z,20.85
2018-08-03T03:45:17.548Z,20.82
2018-08-03T03:47:45.628Z,20.81
2018-08-03T03:50:13.677Z,20.81
2018-08-03T03:52:41.735Z,20.80
2018-08-03T03:55:09.811Z,20.78
2018-08-03T03:57:37.863Z,20.77
2018-08-03T04:00:06.941Z,20.73
2018-08-03T04:02:35.018Z,20.73
2018-08-03T04:05:03.060Z,20.71
2018-08-03T04:07:31.123Z,20.71
2018-08-03T04:09:59.176Z,20.69
2018-08-03T04:12:27.339Z,20.69
2018-08-03T04:14:55.351Z,20.69
2018-08-03T04:17:23.439Z,20.70
2018-08-03T04:19:51.496Z,20.72
2018-08-03T04:22:19.552Z,20.74
2018-08-03T04:24:47.604Z,20.76
2018-08-03T04:27:15.680Z,20.78
2018-08-03T04:29:43.748Z,20.81
2018-08-03T04:32:11.809Z,20.83
2018-08-03T04:34:39.900Z,20.86
2018-08-03T04:37:07.972Z,20.90
2018-08-03T04:39:36.053Z,20.92
2018-08-03T04:42:04.147Z,20.95
2018-08-03T04:44:32.210Z,20.97
2018-08-03T04:47:00.288Z,21.03
2018-08-03T04:49:28.336Z,21.08
2018-08-03T04:51:56.423Z,21.12
2018-08-03T04:54:24.478Z,21.18
2018-08-03T04:56:52.531Z,21.24
2018-08-03T04:59:20.588Z,21.30
2018-08-03T05:01:48.652Z,21.38
2018-08-03T05:04:16.739Z,21.43
2018-08-03T05:06:44.817Z,21.52
2018-08-03T05:09:12.880Z,21.60
2018-08-03T05:11:40.973Z,21.69
2018-08-03T05:14:09.019Z,21.79
2018-08-03T05:16:37.101Z,21.88
2018-08-03T05:19:05.199Z,21.99
2018-08-03T05:21:33.253Z,22.11
2018-08-03T05:24:01.328Z,22.21
2018-08-03T05:26:29.544Z,22.30
2018-08-03T05:28:57.612Z,22.41
2018-08-03T05:31:25.696Z,22.52
2018-08-03T05:33:53.776Z,22.65
2018-08-03T05:36:21.928Z,22.76
2018-08-03T05:38:49.924Z,22.88
2018-08-03T05:41:18.056Z,22.98
2018-08-03T05:43:46.141Z,23.10
2018-08-03T05:46:14.192Z,23.20
2018-08-03T05:48:42.276Z,23.30
2018-08-03T05:51:10.364Z,23.43
2018-08-03T05:53:38.476Z,23.56
2018-08-03T05:56:06.606Z,23.69
2018-08-03T05:58:34.696Z,23.83
2018-08-03T06:01:02.821Z,23.95
2018-08-03T06:03:30.872Z,24.08
2018-08-03T06:05:59.335Z,24.21
2018-08-03T06:08:27.819Z,24.34
2018-08-03T06:10:55.875Z,24.47
2018-08-03T06:13:23.937Z,24.58
2018-08-03T06:15:52.023Z,24.68
2018-08-03T06:18:20.088Z,24.83
2018-08-03T06:20:48.168Z,24.99
2018-08-03T06:23:16.238Z,25.19
2018-08-03T06:25:44.276Z,25.40
2018-08-03T06:28:12.400Z,25.57
2018-08-03T06:30:40.465Z,25.70
2018-08-03T06:33:08.529Z,25.84
2018-08-03T06:35:36.602Z,25.96
2018-08-03T06:38:04.714Z,26.09
2018-08-03T06:40:32.736Z,26.23
2018-08-03T06:43:00.823Z,26.38
2018-08-03T06:45:28.927Z,26.48
2018-08-03T06:47:57.218Z,26.61
2018-08-03T06:50:25.400Z,26.75
2018-08-03T06:52:53.460Z,26.90
2018-08-03T06:55:21.585Z,27.07
2018-08-03T06:57:49.628Z,27.25
2018-08-03T07:00:17.823Z,27.43
2018-08-03T07:02:47.241Z,27.67
2018-08-03T07:05:15.243Z,27.87
2018-08-03T07:07:43.337Z,28.08
2018-08-03T07:10:11.402Z,28.34
2018-08-03T07:12:39.588Z,28.58
2018-08-03T07:15:07.640Z,28.80
2018-08-03T07:17:35.724Z,29.00
2018-08-03T07:20:04.329Z,29.16
2018-08-03T07:22:32.250Z,29.40
2018-08-03T07:25:00.308Z,29.59
2018-08-03T07:27:28.343Z,29.78
2018-08-03T07:29:56.428Z,29.99
2018-08-03T07:32:24.789Z,30.15
2018-08-03T07:34:52.835Z,30.34
2018-08-03T07:37:20.908Z,30.53
2018-08-03T07:39:48.956Z,30.70
2018-08-03T07:42:17.242Z,30.89
2018-08-03T07:44:45.275Z,31.10
2018-08-03T07:47:13.312Z,31.29
2018-08-03T07:49:41.360Z,31.42
2018-08-03T07:52:09.421Z,31.53
2018-08-03T07:54:37.532Z,31.62
2018-08-03T07:57:05.623Z,31.77
2018-08-03T07:59:33.684Z,32.01
2018-08-03T08:02:01.743Z,32.20
2018-08-03T08:04:29.830Z,32.33
2018-08-03T08:06:57.876Z,32.51
2018-08-03T08:09:25.958Z,32.67
2018-08-03T08:11:54.021Z,32.78
2018-08-03T08:14:22.095Z,32.90
2018-08-03T08:16:50.292Z,33.06
2018-08-03T08:19:18.341Z,33.25
2018-08-03T08:21:46.461Z,33.40
2018-08-03T08:24:14.572Z,33.49
2018-08-03T08:26:42.655Z,33.66
2018-08-03T08:29:10.724Z,33.90
2018-08-03T08:31:38.886Z,34.01
2018-08-03T08:34:06.918Z,34.25
2018-08-03T08:36:34.983Z,34.51
2018-08-03T08:39:03.307Z,34.73
2018-08-03T08:41:31.376Z,34.96
2018-08-03T08:43:59.604Z,35.04
2018-08-03T08:46:27.629Z,35.17
2018-08-03T08:48:55.692Z,35.36
2018-08-03T08:51:23.760Z,35.56
2018-08-03T08:53:51.843Z,35.72
2018-08-03T08:56:19.908Z,35.90
2018-08-03T08:58:47.960Z,36.04
2018-08-03T09:01:16.184Z,36.23
2018-08-03T09:03:44.192Z,36.29
2018-08-03T09:06:12.258Z,36.41
2018-08-03T09:08:40.347Z,36.47
2018-08-03T09:11:08.925Z,36.55
2018-08-03T09:13:37.019Z,36.70
2018-08-03T09:16:05.088Z,36.85
2018-08-03T09:18:33.182Z,36.74
2018-08-03T09:21:01.235Z,36.76
2018-08-03T09:23:29.298Z,36.92
2018-08-03T09:25:57.364Z,37.09
2018-08-03T09:28:25.442Z,37.18
2018-08-03T09:30:53.562Z,37.30
2018-08-03T09:33:21.619Z,37.46
2018-08-03T09:35:49.676Z,37.67
2018-08-03T09:38:17.736Z,37.88
2018-08-03T09:40:45.836Z,38.05
2018-08-03T09:43:13.903Z,38.20
2018-08-03T09:45:41.991Z,38.33
2018-08-03T09:48:10.038Z,38.40
2018-08-03T09:50:38.141Z,38.50
2018-08-03T09:53:06.360Z,38.66
2018-08-03T09:55:34.471Z,38.77
2018-08-03T09:58:02.637Z,38.97
2018-08-03T10:00:36.116Z,39.19
2018-08-03T10:03:04.174Z,39.39
2018-08-03T10:05:32.232Z,39.58
2018-08-03T10:08:00.337Z,39.72
2018-08-03T10:10:28.447Z,39.72
2018-08-03T10:12:56.589Z,39.74
2018-08-03T10:15:24.635Z,39.77
2018-08-03T10:17:52.928Z,39.79
2018-08-03T10:20:21.016Z,39.79
2018-08-03T10:22:49.089Z,39.95
2018-08-03T10:25:17.203Z,40.12
2018-08-03T10:27:45.260Z,40.27
2018-08-03T10:30:13.374Z,40.27
2018-08-03T10:32:41.444Z,40.17
2018-08-03T10:35:09.582Z,40.15
2018-08-03T10:37:37.623Z,40.08
2018-08-03T10:40:05.741Z,40.05
2018-08-03T10:42:33.833Z,39.86
2018-08-03T10:45:01.881Z,39.97
2018-08-03T10:47:29.943Z,40.20
2018-08-03T10:49:58.064Z,40.40
2018-08-03T10:52:26.121Z,40.63
2018-08-03T10:54:54.210Z,40.68
2018-08-03T10:57:22.268Z,40.81
2018-08-03T10:59:50.332Z,40.93
2018-08-03T11:02:18.386Z,40.96
2018-08-03T11:04:46.457Z,41.09
2018-08-03T11:07:14.530Z,41.00
2018-08-03T11:09:42.598Z,40.94
2018-08-03T11:12:10.684Z,40.98
2018-08-03T11:14:38.773Z,40.76
2018-08-03T11:17:06.865Z,40.22
2018-08-03T11:19:34.924Z,39.75
2018-08-03T11:22:03.060Z,39.83
2018-08-03T11:24:31.095Z,39.51
2018-08-03T11:26:59.212Z,39.32
2018-08-03T11:29:27.287Z,39.53
2018-08-03T11:31:55.357Z,39.78
2018-08-03T11:34:23.405Z,40.10
2018-08-03T11:36:51.469Z,40.40
2018-08-03T11:39:19.544Z,40.55
2018-08-03T11:41:47.630Z,40.57
2018-08-03T11:44:15.739Z,40.76
2018-08-03T11:46:43.968Z,40.84
2018-08-03T11:49:12.036Z,40.98
2018-08-03T11:51:40.099Z,40.95
2018-08-03T11:54:08.179Z,40.55
2018-08-03T11:56:36.215Z,40.61
2018-08-03T11:59:04.316Z,40.79
2018-08-03T12:01:32.396Z,40.96
2018-08-03T12:04:00.491Z,40.98
2018-08-03T12:06:28.562Z,41.11
2018-08-03T12:08:56.619Z,41.29
2018-08-03T12:11:24.688Z,41.51
2018-08-03T12:13:52.759Z,41.53
2018-08-03T12:16:20.855Z,41.71
2018-08-03T12:18:48.901Z,41.71
2018-08-03T12:21:16.979Z,41.82
2018-08-03T12:23:45.074Z,41.87
2018-08-03T12:26:13.095Z,41.92
2018-08-03T12:28:41.159Z,41.72
2018-08-03T12:31:09.269Z,41.40
2018-08-03T12:33:37.309Z,41.08
2018-08-03T12:36:05.496Z,40.98
2018-08-03T12:38:33.548Z,41.09
2018-08-03T12:41:01.689Z,41.22
2018-08-03T12:43:29.788Z,41.16
2018-08-03T12:45:57.870Z,41.25
2018-08-03T12:48:25.893Z,41.26
2018-08-03T12:50:53.972Z,41.18
2018-08-03T12:53:22.064Z,41.24
2018-08-03T12:55:50.135Z,41.30
2018-08-03T12:58:18.194Z,41.30
2018-08-03T13:00:46.249Z,41.44
2018-08-03T13:03:15.038Z,41.54
2018-08-03T13:05:43.228Z,41.62
2018-08-03T13:08:11.389Z,41.66
2018-08-03T13:10:39.973Z,41.77
2018-08-03T13:13:08.094Z,41.87
2018-08-03T13:15:36.174Z,41.86
2018-08-03T13:18:04.261Z,41.84
2018-08-03T13:20:32.340Z,41.84
2018-08-03T13:23:02.091Z,41.82
2018-08-03T13:25:30.147Z,41.89
2018-08-03T13:27:58.212Z,41.91
2018-08-03T13:30:26.256Z,42.02
2018-08-03T13:32:54.320Z,41.94
2018-08-03T13:35:22.455Z,41.93
2018-08-03T13:37:50.809Z,41.71
2018-08-03T13:40:18.880Z,41.55
2018-08-03T13:42:47.156Z,41.48
2018-08-03T13:45:15.324Z,41.49
2018-08-03T13:47:43.400Z,41.57
2018-08-03T13:50:11.981Z,41.64
2018-08-03T13:52:40.061Z,41.69
2018-08-03T13:55:08.171Z,41.54
2018-08-03T13:57:36.309Z,41.21
2018-08-03T14:00:06.169Z,41.03
2018-08-03T14:02:34.236Z,41.07
2018-08-03T14:05:02.296Z,41.12
2018-08-03T14:07:30.376Z,41.21
2018-08-03T14:09:58.483Z,41.16
2018-08-03T14:12:26.533Z,41.21
2018-08-03T14:14:54.595Z,41.10
2018-08-03T14:17:22.655Z,41.21
2018-08-03T14:19:50.703Z,41.39
2018-08-03T14:22:18.777Z,41.55
2018-08-03T14:24:46.865Z,41.67
2018-08-03T14:27:14.952Z,41.85
2018-08-03T14:29:43.005Z,41.86
2018-08-03T14:32:11.063Z,41.39
2018-08-03T14:34:39.123Z,40.96
2018-08-03T14:37:07.201Z,40.57
2018-08-03T14:39:35.252Z,40.21
2018-08-03T14:44:37.740Z,40.00
2018-08-03T14:47:05.895Z,40.05
2018-08-03T14:49:33.947Z,40.22
2018-08-03T14:52:02.001Z,40.35
2018-08-03T14:54:30.083Z,40.35
2018-08-03T14:56:58.117Z,40.38
2018-08-03T14:59:26.220Z,40.40
2018-08-03T15:01:54.269Z,40.47
2018-08-03T15:04:22.392Z,40.49
2018-08-03T15:06:50.431Z,40.41
2018-08-03T15:09:18.494Z,40.19
2018-08-03T15:11:46.545Z,40.14
2018-08-03T15:14:14.593Z,40.17
2018-08-03T15:16:42.646Z,40.15
2018-08-03T15:19:10.733Z,40.18
2018-08-03T15:21:38.819Z,40.07
2018-08-03T15:24:06.916Z,39.95
2018-08-03T15:26:34.998Z,39.67
2018-08-03T15:29:03.161Z,39.45
2018-08-03T15:31:31.170Z,39.15
2018-08-03T15:33:59.241Z,38.86
2018-08-03T15:36:27.288Z,38.72
2018-08-03T15:38:55.360Z,38.59
2018-08-03T15:41:23.428Z,38.52
2018-08-03T15:43:51.799Z,38.47
2018-08-03T15:46:21.054Z,38.28
2018-08-03T15:48:49.147Z,38.14
2018-08-03T15:51:17.204Z,37.99
2018-08-03T15:53:45.271Z,37.78
2018-08-03T15:56:13.323Z,37.62
2018-08-03T15:58:41.482Z,37.45
2018-08-03T16:01:09.520Z,37.23
2018-08-03T16:03:37.615Z,37.11
2018-08-03T16:06:05.737Z,36.99
2018-08-03T16:08:33.792Z,36.89
2018-08-03T16:11:01.961Z,36.79
2018-08-03T16:13:30.117Z,36.62
2018-08-03T16:15:59.267Z,36.52
2018-08-03T16:18:27.338Z,36.43
2018-08-03T16:20:55.380Z,36.32
2018-08-03T16:23:23.427Z,36.25
2018-08-03T16:25:51.581Z,36.15
2018-08-03T16:28:19.644Z,36.05
2018-08-03T16:30:47.708Z,35.96
2018-08-03T16:33:15.760Z,35.87
2018-08-03T16:35:43.836Z,35.76
2018-08-03T16:38:11.950Z,35.67
2018-08-03T16:40:40.097Z,35.58
2018-08-03T16:43:08.168Z,35.43
2018-08-03T16:45:36.284Z,35.31
2018-08-03T16:48:04.413Z,35.22
2018-08-03T16:50:32.496Z,35.18
2018-08-03T16:53:00.596Z,35.10
2018-08-03T16:55:28.704Z,34.96
2018-08-03T16:57:56.790Z,34.90
2018-08-03T17:00:24.996Z,34.89
2018-08-03T17:02:53.077Z,34.91
2018-08-03T17:05:21.168Z,34.84
2018-08-03T17:07:49.219Z,34.74
2018-08-03T17:10:17.285Z,34.63
2018-08-03T17:12:45.390Z,34.57
2018-08-03T17:15:13.460Z,34.53
2018-08-03T17:17:41.527Z,34.50
2018-08-03T17:20:09.664Z,34.48
2018-08-03T17:22:37.695Z,34.36
2018-08-03T17:25:05.772Z,34.27
2018-08-03T17:27:33.824Z,34.22
2018-08-03T17:30:01.889Z,34.16
2018-08-03T17:32:29.943Z,34.08
2018-08-03T17:34:57.992Z,33.84
2018-08-03T17:37:26.096Z,33.75
2018-08-03T17:39:54.276Z,33.70
2018-08-03T17:42:22.347Z,33.71
2018-08-03T17:44:50.396Z,33.70
2018-08-03T17:47:18.467Z,33.67
2018-08-03T17:49:46.556Z,33.66
2018-08-03T17:52:14.616Z,33.67
2018-08-03T17:54:42.697Z,33.66
2018-08-03T17:57:10.795Z,33.63
2018-08-03T17:59:38.832Z,33.63
2018-08-03T18:02:07.090Z,33.60
2018-08-03T18:04:35.263Z,33.56
2018-08-03T18:07:03.356Z,33.51
2018-08-03T18:09:31.603Z,33.48
2018-08-03T18:11:59.699Z,33.43
2018-08-03T18:14:27.762Z,33.37
2018-08-03T18:16:55.829Z,33.32
2018-08-03T18:19:23.891Z,33.24
2018-08-03T18:21:52.033Z,33.18
2018-08-03T18:24:20.058Z,33.11
2018-08-03T18:26:48.155Z,33.01
2018-08-03T18:29:16.281Z,32.94
2018-08-03T18:31:44.353Z,32.87
2018-08-03T18:34:12.412Z,32.79
2018-08-03T18:36:40.557Z,32.71
2018-08-03T18:39:10.000Z,32.64
2018-08-03T18:41:38.281Z,32.57
2018-08-03T18:44:06.432Z,32.49
2018-08-03T18:46:34.544Z,32.41
2018-08-03T18:49:02.627Z,32.31
2018-08-03T18:51:30.709Z,32.21
2018-08-03T18:53:58.833Z,32.12
2018-08-03T18:56:26.932Z,32.01
2018-08-03T18:58:55.013Z,31.90
2018-08-03T19:01:23.099Z,31.79
2018-08-03T19:03:51.175Z,31.69
2018-08-03T19:06:19.289Z,31.59
2018-08-03T19:08:47.395Z,31.49
2018-08-03T19:11:15.515Z,31.39
2018-08-03T19:13:43.581Z,31.30
2018-08-03T19:16:11.652Z,31.21
2018-08-03T19:18:40.049Z,31.10
2018-08-03T19:21:08.134Z,30.98
2018-08-03T19:23:36.212Z,30.91
2018-08-03T19:26:04.312Z,30.81
2018-08-03T19:28:32.411Z,30.72
2018-08-03T19:31:00.492Z,30.61
2018-08-03T19:33:28.649Z,30.48
2018-08-03T19:35:56.708Z,30.39
2018-08-03T19:38:24.820Z,30.32
2018-08-03T19:40:52.920Z,30.23
2018-08-03T19:43:21.034Z,30.15
2018-08-03T19:45:49.120Z,30.07
2018-08-03T19:48:17.191Z,29.98
2018-08-03T19:50:45.635Z,29.92
2018-08-03T19:53:13.786Z,29.88
2018-08-03T19:55:42.692Z,29.81
2018-08-03T19:58:10.791Z,29.77
2018-08-03T20:00:38.884Z,29.73
2018-08-03T20:03:07.025Z,29.72
2018-08-03T20:05:35.102Z,29.68
2018-08-03T20:08:03.220Z,29.64
2018-08-03T20:10:31.328Z,29.59
2018-08-03T20:13:00.112Z,29.53
2018-08-03T20:15:28.174Z,29.47
2018-08-03T20:17:56.275Z,29.42
2018-08-03T20:20:24.380Z,29.37
2018-08-03T20:22:52.505Z,29.32
2018-08-03T20:25:20.580Z,29.22
2018-08-03T20:27:48.652Z,29.13
2018-08-03T20:30:16.743Z,29.02
2018-08-03T20:32:44.873Z,28.95
2018-08-03T20:35:12.940Z,28.88
2018-08-03T20:37:41.031Z,28.80
2018-08-03T20:40:09.616Z,28.75
2018-08-03T20:42:37.718Z,28.71
2018-08-03T20:45:06.083Z,28.64
2018-08-03T20:47:34.195Z,28.57
2018-08-03T20:50:02.312Z,28.49
2018-08-03T20:52:30.597Z,28.41
2018-08-03T20:54:58.710Z,28.35
2018-08-03T20:57:26.817Z,28.30
2018-08-03T20:59:54.869Z,28.23
2018-08-03T21:02:23.180Z,28.17
2018-08-03T21:04:51.248Z,28.12
2018-08-03T21:07:19.332Z,28.06
2018-08-03T21:09:47.487Z,28.01
2018-08-03T21:12:15.615Z,27.95
2018-08-03T21:14:43.681Z,27.87
2018-08-03T21:17:11.758Z,27.83
2018-08-03T21:19:39.832Z,27.79
2018-08-03T21:22:07.936Z,27.70
2018-08-03T21:24:36.049Z,27.62
2018-08-03T21:27:04.092Z,27.53
2018-08-03T21:29:32.158Z,27.47
2018-08-03T21:32:00.241Z,27.41
2018-08-03T21:34:28.327Z,27.40
2018-08-03T21:36:56.407Z,27.35
2018-08-03T21:39:24.477Z,27.34
2018-08-03T21:41:52.572Z,27.31
2018-08-03T21:44:20.667Z,27.28
2018-08-03T21:46:48.795Z,27.26
2018-08-03T21:49:16.898Z,27.25
2018-08-03T21:51:44.991Z,27.21
2018-08-03T21:54:13.060Z,27.16
2018-08-03T21:56:41.139Z,27.11
2018-08-03T21:59:09.228Z,27.04
2018-08-03T22:01:37.336Z,26.96
2018-08-03T22:04:05.445Z,26.86
2018-08-03T22:06:33.515Z,26.79
2018-08-03T22:09:01.592Z,26.72
2018-08-03T22:11:29.680Z,26.68
2018-08-03T22:13:57.737Z,26.62
2018-08-03T22:16:25.840Z,26.54
2018-08-03T22:18:53.984Z,26.48
2018-08-03T22:21:22.043Z,26.43
2018-08-03T22:23:50.129Z,26.36
2018-08-03T22:26:18.192Z,26.31
2018-08-03T22:28:46.244Z,26.30
2018-08-03T22:31:14.629Z,26.25
2018-08-03T22:33:42.776Z,26.23
2018-08-03T22:36:10.819Z,26.22
2018-08-03T22:38:38.968Z,26.17
2018-08-03T22:41:07.040Z,26.14
2018-08-03T22:43:35.090Z,26.14
2018-08-03T22:46:03.168Z,26.13
2018-08-03T22:48:31.279Z,26.12
2018-08-03T22:50:59.317Z,26.09
2018-08-03T22:53:27.404Z,26.07
2018-08-03T22:55:55.463Z,26.03
2018-08-03T22:58:23.548Z,26.02
2018-08-03T23:00:51.611Z,25.96
2018-08-03T23:03:19.659Z,25.89
2018-08-03T23:05:47.767Z,25.81
2018-08-03T23:08:16.000Z,25.74
2018-08-03T23:10:43.991Z,25.67
2018-08-03T23:13:12.060Z,25.61
2018-08-03T23:15:40.175Z,25.53
2018-08-03T23:18:08.263Z,25.46
2018-08-03T23:20:36.328Z,25.41
2018-08-03T23:23:04.381Z,25.36
2018-08-03T23:25:32.465Z,25.28
2018-08-03T23:28:00.531Z,25.24
2018-08-03T23:30:28.616Z,25.20
2018-08-03T23:32:56.693Z,25.14
2018-08-03T23:35:24.785Z,25.09
2018-08-03T23:37:52.840Z,25.04
2018-08-03T23:40:20.936Z,24.99
2018-08-03T23:42:49.047Z,24.94
2018-08-03T23:45:17.152Z,24.90
2018-08-03T23:47:45.225Z,24.84
2018-08-03T23:50:16.164Z,24.78
2018-08-03T23:52:44.720Z,24.71
2018-08-03T23:55:12.776Z,24.66
2018-08-03T23:57:40.849Z,24.61
